Sar'Ja, Russia
Current Conditions -  °F | °C
As of 3:00 AM on Saturday 20 Dec 2014 (Local Time) from UWGG Reporting Station
Overcast Overcast  
Wind Chill: 24°   Ceiling: 1200
Heat Index: 34°   Visibility: 6mi
Dew Point: 32°   Wind: 13mph
Humidity: 93%   Direction: 190°S
Pressure: 29.53"   Gusts: NA
Location:  58.37°N, 45.53°E
Report Text: UWGG 200000Z 19006MPS 9999 OVC012 01/M00 Q1000 TEMPO 1000SHSNRA OVC004 SCT012CB 18490242 RMK QFE743
Loading
Personal Weather Stations






























Interactive Weather Map New forecast layout! Learn more

10-Day Weather Forecast

Advertisements
Track Severe Weather on mobile